Time;durP1;ratioP1;P1;durP2;ratioP2;P2;SDS_P1;SDS_P2;PMS_P1;PMS_P2;Temp;Humidity;BMP_temperature;BMP_pressure;BME280_temperature;BME280_humidity;BME280_pressure;Samples;Min_cycle;Max_cycle;Signal;HPM_P1;HPM_P2
2022/12/01 00:35:47;;;;;;;35.30;16.70;;;;;;;8.11;69.83;100853.56;5077790;23;20117;-80
2022/12/01 00:38:14;;;;;;;36.47;17.90;;;;;;;8.10;69.94;100845.75;5049357;28;20453;-79
2022/12/01 00:40:41;;;;;;;35.30;18.10;;;;;;;8.10;69.94;100851.00;5049639;28;20065;-79
2022/12/01 00:43:07;;;;;;;36.30;17.95;;;;;;;8.11;69.78;100848.31;5031649;28;20056;-80
2022/12/01 00:45:34;;;;;;;36.95;19.20;;;;;;;8.13;70.20;100854.38;5049371;28;20724;-80
2022/12/01 00:48:00;;;;;;;39.38;18.88;;;;;;;8.13;69.81;100850.91;5031832;28;20064;-81
2022/12/01 00:50:27;;;;;;;39.15;18.70;;;;;;;8.14;69.81;100845.59;5048687;28;20118;-81
2022/12/01 00:52:53;;;;;;;43.97;19.05;;;;;;;8.15;69.81;100847.31;5049633;28;20423;-80
2022/12/01 00:55:19;;;;;;;39.22;19.08;;;;;;;8.15;70.02;100844.69;5031552;28;20057;-81
2022/12/01 00:57:46;;;;;;;39.30;19.45;;;;;;;8.18;69.68;100851.63;5049202;28;20088;-81
2022/12/01 01:00:13;;;;;;;37.10;19.00;;;;;;;8.18;69.81;100847.25;5031684;28;20053;-81
2022/12/01 01:02:39;;;;;;;39.20;19.65;;;;;;;8.19;69.67;100853.34;5049466;28;20466;-81
2022/12/01 01:05:06;;;;;;;37.45;19.58;;;;;;;8.18;69.94;100857.72;5049099;28;20057;-81
2022/12/01 01:07:33;;;;;;;38.72;18.52;;;;;;;8.19;69.79;100850.72;5049162;28;20056;-81
2022/12/01 01:09:59;;;;;;;37.90;18.85;;;;;;;8.17;69.62;100852.53;5049051;28;20045;-81
2022/12/01 01:12:26;;;;;;;41.15;19.63;;;;;;;8.16;69.71;100856.94;5049218;28;20100;-80
2022/12/01 01:14:53;;;;;;;36.95;19.35;;;;;;;8.17;69.90;100856.03;5049413;28;20569;-81
2022/12/01 01:17:19;;;;;;;41.65;19.88;;;;;;;8.16;69.58;100859.56;5034954;28;20108;-81
2022/12/01 01:19:46;;;;;;;77.30;21.15;;;;;;;8.16;70.14;100864.81;5052509;28;20499;-81
2022/12/01 01:22:13;;;;;;;40.83;19.48;;;;;;;8.17;69.96;100858.66;5034857;28;20057;-80
2022/12/01 01:24:39;;;;;;;44.22;20.70;;;;;;;8.18;69.81;100857.72;5052506;28;20059;-81
2022/12/01 01:27:05;;;;;;;57.65;20.02;;;;;;;8.18;69.73;100860.34;5052231;28;20057;-81
2022/12/01 01:29:32;;;;;;;43.92;19.25;;;;;;;8.19;69.99;100859.44;5052484;28;20061;-80
2022/12/01 01:31:58;;;;;;;58.72;18.40;;;;;;;8.19;70.04;100863.84;5052253;28;20454;-81
2022/12/01 01:34:25;;;;;;;171.43;22.08;;;;;;;8.19;70.03;100872.56;5034434;28;20080;-81
2022/12/01 01:36:51;;;;;;;125.28;20.23;;;;;;;8.20;69.91;100870.81;5034224;28;20060;-81
2022/12/01 01:39:17;;;;;;;56.58;18.45;;;;;;;8.19;69.92;100866.47;5034526;28;20053;-81
2022/12/01 01:41:44;;;;;;;48.55;18.88;;;;;;;8.18;69.78;100868.22;5052346;28;20080;-81
2022/12/01 01:44:44;;;;;;;62.10;20.17;;;;;;;8.15;70.21;100868.31;5052249;28;20057;-81
2022/12/01 01:47:12;;;;;;;75.70;18.65;;;;;;;8.19;69.86;100869.09;5051066;28;20495;-80
2022/12/01 01:49:40;;;;;;;39.08;17.67;;;;;;;8.19;69.74;100874.34;5052236;28;20049;-81
2022/12/01 01:52:06;;;;;;;101.75;20.30;;;;;;;8.16;69.70;100875.28;5052204;28;20057;-81
2022/12/01 01:54:38;;;;;;;50.45;20.30;;;;;;;8.13;69.71;100872.75;5034462;28;20114;-81
2022/12/01 01:57:08;;;;;;;67.65;19.50;;;;;;;8.14;69.71;100871.84;5051785;28;20060;-81
2022/12/01 01:59:44;;;;;;;46.97;19.65;;;;;;;8.11;69.89;100877.16;5052082;28;20110;-81
2022/12/01 02:02:11;;;;;;;43.95;19.95;;;;;;;8.13;69.86;100869.25;5051744;28;20056;-81
2022/12/01 02:04:46;;;;;;;47.78;19.67;;;;;;;8.12;69.80;100875.41;5051974;28;20140;-80
2022/12/01 02:07:16;;;;;;;37.78;19.13;;;;;;;8.13;69.86;100877.13;5051450;28;20057;-81
2022/12/01 02:09:42;;;;;;;37.40;20.10;;;;;;;8.12;69.89;100872.78;5052024;28;20103;-80
2022/12/01 02:12:24;;;;;;;36.97;19.25;;;;;;;8.10;69.77;100872.81;5051980;28;20115;-80
2022/12/01 02:15:16;;;;;;;41.55;20.63;;;;;;;8.08;69.73;100874.66;5033872;28;20057;-80
2022/12/01 02:18:03;;;;;;;42.28;19.98;;;;;;;8.07;69.91;100872.91;5051316;28;20114;-80
2022/12/01 02:20:38;;;;;;;42.13;19.77;;;;;;;8.12;69.89;100870.16;5033051;28;20053;-80
2022/12/01 02:23:29;;;;;;;54.10;21.08;;;;;;;8.10;69.57;100875.44;5051294;28;20111;-80
2022/12/01 02:26:30;;;;;;;51.25;21.70;;;;;;;8.04;69.57;100880.88;5051346;28;20114;-80
2022/12/01 02:29:24;;;;;;;34.55;18.30;;;;;;;8.04;69.79;100886.13;5026616;28;20536;-80
2022/12/01 02:31:58;;;;;;;37.13;19.52;;;;;;;8.04;69.56;100881.72;5051862;28;20072;-80
2022/12/01 02:34:33;;;;;;;39.90;20.88;;;;;;;8.02;69.85;100877.44;5033526;28;20053;-80
2022/12/01 02:37:31;;;;;;;38.17;19.73;;;;;;;8.00;70.21;100879.25;5051376;28;20056;-80
2022/12/01 02:40:02;;;;;;;39.45;20.52;;;;;;;8.01;69.70;100873.09;5051297;28;20056;-80
2022/12/01 02:42:49;;;;;;;42.10;21.42;;;;;;;8.01;70.09;100880.97;5051549;28;20053;-80
2022/12/01 02:45:41;;;;;;;44.67;21.88;;;;;;;8.00;69.65;100868.75;5051167;28;20123;-80
2022/12/01 02:48:19;;;;;;;42.25;21.08;;;;;;;7.99;69.75;100872.28;5026667;28;20613;-80
2022/12/01 02:50:46;;;;;;;42.70;21.40;;;;;;;8.00;69.60;100868.75;5051188;28;20057;-80
2022/12/01 02:53:16;;;;;;;43.83;22.35;;;;;;;7.99;69.51;100874.91;5051421;28;20107;-81
2022/12/01 02:55:51;;;;;;;41.45;22.38;;;;;;;7.95;69.98;100872.38;5050937;28;20052;-80
2022/12/01 02:58:18;;;;;;;45.30;23.25;;;;;;;8.00;69.63;100869.59;5050947;28;20079;-80
2022/12/01 03:01:09;;;;;;;53.47;26.10;;;;;;;7.95;70.18;100861.88;5050770;28;20048;-80
2022/12/01 03:03:51;;;;;;;54.38;25.70;;;;;;;7.98;69.81;100868.81;5051156;28;20064;-80
2022/12/01 03:06:22;;;;;;;50.50;25.15;;;;;;;8.02;69.80;100874.81;5050895;28;20056;-80
2022/12/01 03:09:08;;;;;;;54.42;27.27;;;;;;;7.96;69.80;100875.84;5050834;28;20102;-80
2022/12/01 03:11:42;;;;;;;48.38;25.38;;;;;;;7.97;69.58;100869.72;5050939;28;20061;-80
2022/12/01 03:14:31;;;;;;;52.65;26.55;;;;;;;7.95;69.95;100874.13;5050843;28;20097;-80
2022/12/01 03:17:07;;;;;;;55.30;26.42;;;;;;;7.97;69.74;100874.09;5050240;28;20049;-80
2022/12/01 03:19:43;;;;;;;64.65;26.92;;;;;;;7.94;69.85;100868.03;5033095;28;20061;-80
2022/12/01 03:22:15;;;;;;;60.90;27.13;;;;;;;7.97;69.75;100874.09;5050549;28;20049;-80
2022/12/01 03:24:47;;;;;;;73.22;28.67;;;;;;;7.95;69.71;100864.50;5032865;28;20454;-80
2022/12/01 03:27:19;;;;;;;88.25;28.50;;;;;;;7.95;69.79;100866.25;5050384;28;20060;-80
2022/12/01 03:29:50;;;;;;;65.78;28.30;;;;;;;7.93;69.59;100862.84;5050499;28;20057;-81
2022/12/01 03:32:23;;;;;;;56.47;27.63;;;;;;;7.93;69.48;100865.44;5050590;28;20084;-80
2022/12/01 03:34:52;;;;;;;;;;;;;;;7.91;69.78;100865.50;5032971;28;20076;-80
2022/12/01 03:37:40;;;;;;;49.90;24.88;;;;;;;7.89;69.77;100866.44;5050109;28;19974;-80
2022/12/01 03:40:10;;;;;;;58.55;26.52;;;;;;;7.89;69.69;100858.56;5050359;28;20106;-80
2022/12/01 03:42:45;;;;;;;59.92;28.00;;;;;;;7.86;69.84;100861.28;5050292;28;20114;-80
2022/12/01 03:45:18;;;;;;;53.15;26.95;;;;;;;7.85;69.62;100860.41;5050266;28;20463;-81
2022/12/01 03:47:44;;;;;;;53.50;27.50;;;;;;;7.86;69.96;100864.78;5049927;28;20064;-81
2022/12/01 03:50:12;;;;;;;60.40;28.55;;;;;;;7.87;69.97;100863.00;5050237;28;20111;-81
2022/12/01 03:52:46;;;;;;;56.80;28.30;;;;;;;7.84;70.41;100863.94;5032180;28;20067;-81
2022/12/01 03:55:31;;;;;;;61.22;28.50;;;;;;;7.82;69.98;100865.75;5032611;28;20052;-81
2022/12/01 03:58:07;;;;;;;58.83;27.77;;;;;;;7.84;69.92;100866.56;5032319;28;20053;-80
2022/12/01 04:00:34;;;;;;;71.63;30.08;;;;;;;7.86;69.68;100869.13;5050222;28;20068;-80
2022/12/01 04:03:02;;;;;;;80.10;29.63;;;;;;;7.85;69.93;100870.88;5050055;28;20118;-81
2022/12/01 04:05:31;;;;;;;75.18;28.48;;;;;;;7.85;69.93;100870.88;5032390;28;20139;-80
2022/12/01 04:07:58;;;;;;;65.80;26.55;;;;;;;7.85;69.75;100870.06;5032387;28;20053;-80
2022/12/01 04:10:24;;;;;;;77.60;28.05;;;;;;;7.82;69.81;100877.06;5050009;28;20053;-81
2022/12/01 04:12:57;;;;;;;64.75;28.08;;;;;;;7.82;69.71;100871.00;5050000;28;20056;-81
2022/12/01 04:15:26;;;;;;;54.63;25.63;;;;;;;7.83;69.77;100883.19;5032160;28;20546;-81
2022/12/01 04:17:53;;;;;;;70.22;27.50;;;;;;;7.84;69.68;100881.44;5050157;28;20477;-80
2022/12/01 04:20:20;;;;;;;57.58;27.05;;;;;;;7.82;69.71;100884.94;5050070;28;20049;-81
2022/12/01 04:22:47;;;;;;;61.17;28.00;;;;;;;7.81;69.88;100883.22;5050046;28;20057;-80
2022/12/01 04:25:14;;;;;;;69.45;27.55;;;;;;;7.79;69.67;100886.78;5049726;28;20095;-80
2022/12/01 04:27:40;;;;;;;61.13;26.67;;;;;;;7.78;69.72;100891.16;5032105;28;20423;-81
2022/12/01 04:30:07;;;;;;;64.20;27.70;;;;;;;7.77;69.64;100891.19;5031901;28;20495;-80
2022/12/01 04:32:38;;;;;;;76.68;28.05;;;;;;;7.73;69.99;100886.97;5032049;28;20697;-81
2022/12/01 04:35:06;;;;;;;92.78;28.13;;;;;;;7.74;69.77;100886.91;5049514;28;20111;-80
2022/12/01 04:37:33;;;;;;;65.80;27.70;;;;;;;7.74;69.96;100888.69;5031935;28;20507;-81
2022/12/01 04:40:00;;;;;;;98.28;28.13;;;;;;;7.75;69.89;100880.78;5049829;28;20049;-80
2022/12/01 04:42:26;;;;;;;64.22;27.25;;;;;;;7.76;70.01;100889.50;5049610;28;20457;-80
2022/12/01 04:44:52;;;;;;;81.13;28.70;;;;;;;7.74;69.91;100875.59;5049642;28;20114;-81
2022/12/01 04:47:19;;;;;;;130.13;30.38;;;;;;;7.73;69.99;100882.56;5031962;28;20076;-81
2022/12/01 04:49:45;;;;;;;74.18;28.45;;;;;;;7.74;69.72;100886.06;5032689;28;20068;-81
2022/12/01 04:52:12;;;;;;;76.43;28.08;;;;;;;7.73;69.65;100881.72;5035990;28;20151;-81
2022/12/01 04:54:38;;;;;;;102.13;27.88;;;;;;;7.73;69.82;100884.34;5053390;28;20064;-81
2022/12/01 04:57:05;;;;;;;65.57;29.35;;;;;;;7.71;69.83;100873.91;5052958;28;20057;-80
2022/12/01 04:59:31;;;;;;;59.90;27.92;;;;;;;7.69;70.20;100875.69;5035946;28;20416;-81
2022/12/01 05:01:58;;;;;;;58.38;28.08;;;;;;;7.70;69.78;100880.03;5053592;28;20675;-80
2022/12/01 05:04:24;;;;;;;70.43;28.63;;;;;;;7.69;70.06;100875.69;5053289;28;20061;-81
2022/12/01 05:06:54;;;;;;;63.50;27.27;;;;;;;7.67;70.08;100877.50;5053134;28;20095;-81
2022/12/01 05:09:20;;;;;;;69.88;28.63;;;;;;;7.69;69.84;100883.56;5035352;28;20053;-80
2022/12/01 05:11:47;;;;;;;69.20;29.42;;;;;;;7.68;69.90;100879.22;5053037;28;20114;-81
2022/12/01 05:14:13;;;;;;;55.95;27.50;;;;;;;7.67;70.06;100882.75;5035257;28;20115;-80
2022/12/01 05:16:40;;;;;;;78.53;29.20;;;;;;;7.66;70.13;100881.88;5053034;28;20158;-80
2022/12/01 05:21:51;;;;;;;71.90;27.90;;;;;;;7.67;70.07;100877.50;5053171;28;20102;-80
2022/12/01 05:24:19;;;;;;;61.80;28.40;;;;;;;7.66;70.21;100881.00;5052526;28;20060;-81
2022/12/01 05:26:45;;;;;;;70.07;28.90;;;;;;;7.65;70.09;100884.53;5034946;28;20110;-81
2022/12/01 05:29:12;;;;;;;67.65;28.58;;;;;;;7.65;69.84;100881.91;5052840;28;20061;-80
2022/12/01 05:31:39;;;;;;;70.70;28.35;;;;;;;7.64;69.97;100881.06;5052905;28;20053;-80
2022/12/01 05:34:06;;;;;;;54.50;27.05;;;;;;;7.65;70.16;100887.16;5052501;28;20502;-80
2022/12/01 05:36:33;;;;;;;66.80;29.52;;;;;;;7.64;69.85;100885.44;5034776;28;20107;-80
2022/12/01 05:38:59;;;;;;;77.80;29.83;;;;;;;7.64;69.70;100886.31;5052663;28;20053;-81
2022/12/01 05:41:25;;;;;;;71.82;27.90;;;;;;;7.62;70.03;100882.88;5052626;28;20053;-81
2022/12/01 05:43:52;;;;;;;87.75;30.00;;;;;;;7.63;69.92;100883.72;4785864;22;20067;-81
2022/12/01 05:46:18;;;;;;;81.05;30.23;;;;;;;7.63;69.78;100886.34;5051787;28;20093;-84
2022/12/01 05:48:46;;;;;;;73.45;28.33;;;;;;;7.62;69.99;100893.34;5052087;28;20402;-83
2022/12/01 05:51:15;;;;;;;88.20;29.77;;;;;;;7.61;70.00;100883.78;5052335;28;20472;-83
2022/12/01 05:53:42;;;;;;;68.47;29.27;;;;;;;7.61;70.00;100896.88;5034588;28;20095;-83
2022/12/01 05:56:08;;;;;;;61.55;29.10;;;;;;;7.60;70.29;100895.16;5052431;28;20092;-82
2022/12/01 05:58:35;;;;;;;76.85;30.95;;;;;;;7.60;70.09;100895.16;5052446;28;20056;-83
2022/12/01 06:01:02;;;;;;;62.53;28.88;;;;;;;7.59;70.03;100898.66;5051986;28;20049;-83
2022/12/01 06:03:28;;;;;;;61.15;29.20;;;;;;;7.58;69.95;100896.94;5034555;28;20278;-84
2022/12/01 06:05:55;;;;;;;69.47;30.73;;;;;;;7.58;70.10;100903.97;5051863;28;20472;-82
2022/12/01 06:08:21;;;;;;;57.22;29.02;;;;;;;7.56;70.26;100896.13;5051797;28;20060;-84
2022/12/01 06:10:48;;;;;;;62.47;29.55;;;;;;;7.56;70.23;100896.13;5051902;28;20068;-80
2022/12/01 06:13:14;;;;;;;60.95;29.38;;;;;;;7.55;70.17;100897.00;5052095;28;20099;-84
2022/12/01 06:15:41;;;;;;;67.85;29.45;;;;;;;7.55;70.23;100900.50;5051779;28;20114;-83
2022/12/01 06:18:08;;;;;;;71.80;31.42;;;;;;;7.54;70.10;100904.03;5051833;28;20095;-82
2022/12/01 06:20:34;;;;;;;70.60;31.58;;;;;;;7.55;70.07;100904.88;5033851;28;20094;-83
2022/12/01 06:23:00;;;;;;;61.20;30.13;;;;;;;7.56;70.02;100906.63;5051919;28;20080;-82
2022/12/01 06:25:27;;;;;;;83.03;31.95;;;;;;;7.56;70.09;100898.75;5051779;28;20084;-83
2022/12/01 06:27:57;;;;;;;62.72;29.45;;;;;;;7.55;70.21;100900.50;5051640;28;20107;-83
2022/12/01 06:30:24;;;;;;;78.07;29.42;;;;;;;7.58;70.12;100898.72;5051796;28;20488;-83
2022/12/01 06:32:51;;;;;;;81.38;30.38;;;;;;;7.58;70.39;100903.97;5051698;28;20064;-83
2022/12/01 06:35:17;;;;;;;76.93;28.08;;;;;;;7.59;70.30;100909.13;5055997;28;20053;-83
2022/12/01 06:37:43;;;;;;;62.20;28.08;;;;;;;7.58;70.17;100904.81;5071754;28;20053;-83
2022/12/01 06:40:10;;;;;;;87.57;29.38;;;;;;;7.57;70.18;100908.34;5071760;28;20056;-83
2022/12/01 06:42:37;;;;;;;59.75;29.15;;;;;;;7.57;69.91;100913.56;5071671;28;20064;-82
2022/12/01 06:45:04;;;;;;;58.53;26.17;;;;;;;7.58;70.19;100909.19;5071497;28;20126;-83
2022/12/01 06:47:30;;;;;;;98.32;29.25;;;;;;;7.58;70.41;100914.44;5071331;28;20056;-83
2022/12/01 06:49:57;;;;;;;74.75;27.80;;;;;;;7.58;70.22;100914.44;5071229;28;20053;-81
2022/12/01 06:52:23;;;;;;;62.08;26.75;;;;;;;7.57;69.84;100918.81;5071283;28;20060;-83
2022/12/01 06:54:49;;;;;;;54.05;25.95;;;;;;;7.56;69.76;100927.56;5071254;28;20111;-83
2022/12/01 06:57:16;;;;;;;56.58;25.48;;;;;;;7.54;69.89;100919.75;5071267;28;20057;-84
2022/12/01 06:59:43;;;;;;;66.07;25.50;;;;;;;7.54;69.96;100921.50;5071296;28;20493;-83
2022/12/01 07:02:10;;;;;;;54.30;24.67;;;;;;;7.54;69.97;100924.13;5069792;28;20151;-81
2022/12/01 07:04:37;;;;;;;52.95;22.60;;;;;;;7.54;70.11;100929.38;5069473;28;20614;-82
2022/12/01 07:07:04;;;;;;;54.03;24.48;;;;;;;7.53;69.95;100925.03;5070873;28;20103;-81
2022/12/01 07:09:31;;;;;;;76.45;24.38;;;;;;;7.53;69.90;100917.16;5071141;28;20056;-81
2022/12/01 07:11:57;;;;;;;47.80;22.02;;;;;;;7.54;70.40;100926.75;5070664;28;20118;-82
2022/12/01 07:14:25;;;;;;;51.10;23.92;;;;;;;7.53;69.97;100925.91;5069934;28;20052;-84
2022/12/01 07:16:52;;;;;;;52.83;23.40;;;;;;;7.53;70.05;100927.66;5070241;28;20068;-83
2022/12/01 07:19:18;;;;;;;47.33;23.15;;;;;;;7.54;70.15;100927.63;5070860;28;20067;-82
2022/12/01 07:21:45;;;;;;;45.20;20.58;;;;;;;7.53;70.37;100922.41;5070207;28;20049;-83
2022/12/01 07:24:11;;;;;;;49.90;21.08;;;;;;;7.53;70.16;100922.41;5070596;28;20045;-83
2022/12/01 07:26:39;;;;;;;44.08;20.73;;;;;;;7.51;70.15;100927.69;5051903;28;20102;-83
2022/12/01 07:29:05;;;;;;;49.88;20.38;;;;;;;7.52;70.21;100925.94;5070615;28;20106;-83
2022/12/01 07:31:32;;;;;;;51.75;19.83;;;;;;;7.51;70.07;100929.47;5069634;28;20092;-83
2022/12/01 07:33:58;;;;;;;42.60;19.40;;;;;;;7.49;69.99;100931.25;5069881;28;20603;-83
2022/12/01 07:36:25;;;;;;;61.72;19.13;;;;;;;7.47;70.36;100931.28;5069524;28;20469;-82
2022/12/01 07:38:51;;;;;;;65.55;20.25;;;;;;;7.49;70.44;100933.88;5069801;28;20083;-84
2022/12/01 07:41:18;;;;;;;66.20;19.05;;;;;;;7.48;70.31;100934.78;5069732;28;20102;-81
2022/12/01 07:43:45;;;;;;;62.33;17.83;;;;;;;7.49;70.34;100931.25;5069475;28;20094;-83
2022/12/01 07:46:14;;;;;;;46.92;17.95;;;;;;;7.48;70.34;100938.22;5070072;28;20451;-84
2022/12/01 07:48:48;;;;;;;76.47;19.05;;;;;;;7.49;70.10;100941.72;5070679;28;20064;-83
2022/12/01 07:51:15;;;;;;;41.58;18.33;;;;;;;7.47;70.29;100941.75;5070684;28;20091;-84
2022/12/01 07:53:46;;;;;;;43.08;19.25;;;;;;;7.47;70.25;100936.53;5070538;28;20053;-84
2022/12/01 07:56:13;;;;;;;44.40;19.65;;;;;;;7.47;70.46;100938.31;5070169;28;20075;-82
2022/12/01 07:58:39;;;;;;;47.50;21.10;;;;;;;7.46;70.35;100942.66;5069858;28;20110;-83
2022/12/01 08:01:18;;;;;;;45.90;20.70;;;;;;;7.43;70.27;100947.97;5070739;28;20084;-83
2022/12/01 08:03:47;;;;;;;41.75;21.02;;;;;;;7.47;70.41;100946.16;5070636;28;20052;-82
2022/12/01 08:06:13;;;;;;;44.47;21.23;;;;;;;7.47;70.53;100948.78;5070455;28;20080;-82
2022/12/01 08:08:40;;;;;;;50.72;24.10;;;;;;;7.50;70.68;100951.28;5070242;28;20095;-84
2022/12/01 08:11:11;;;;;;;49.40;22.52;;;;;;;7.50;70.57;100951.28;5070428;28;20053;-83
2022/12/01 08:13:38;;;;;;;56.47;25.02;;;;;;;7.53;70.52;100957.34;5070823;28;20084;-82
2022/12/01 08:16:06;;;;;;;53.60;25.35;;;;;;;7.55;70.46;100960.78;5052622;28;20084;-83
2022/12/01 08:18:38;;;;;;;56.55;26.95;;;;;;;7.56;70.30;100953.78;5052264;28;20407;-84
2022/12/01 08:21:06;;;;;;;63.90;29.05;;;;;;;7.58;70.41;100956.38;5052502;28;20087;-82
2022/12/01 08:23:33;;;;;;;63.25;28.45;;;;;;;7.58;70.24;100957.22;5052470;28;20182;-84
2022/12/01 08:26:04;;;;;;;65.03;30.35;;;;;;;7.56;70.58;100959.88;5074349;28;20083;-83
2022/12/01 08:28:31;;;;;;;61.33;29.83;;;;;;;7.58;70.08;100954.59;5074177;28;20118;-83
2022/12/01 08:30:57;;;;;;;62.97;30.30;;;;;;;7.58;70.17;100959.00;5074341;28;20052;-82
2022/12/01 08:33:23;;;;;;;62.53;31.92;;;;;;;7.58;70.27;100962.44;5074150;28;20477;-83
2022/12/01 08:35:50;;;;;;;64.35;31.45;;;;;;;7.59;70.39;100963.31;5074033;28;20130;-83
2022/12/01 08:38:17;;;;;;;59.17;29.92;;;;;;;7.59;70.24;100960.69;5073718;28;20126;-85
2022/12/01 08:40:43;;;;;;;63.60;31.20;;;;;;;7.58;70.01;100959.84;5074221;28;20056;-83
2022/12/01 08:43:10;;;;;;;65.55;32.40;;;;;;;7.59;70.32;100964.16;5074049;28;20060;-84
2022/12/01 08:45:59;;;;;;;58.45;30.95;;;;;;;7.59;70.18;100964.16;5073655;28;20573;-82
2022/12/01 08:48:28;;;;;;;58.40;30.55;;;;;;;7.61;70.21;100964.13;5073589;28;20186;-83
2022/12/01 08:51:02;;;;;;;61.63;32.10;;;;;;;7.58;70.24;100962.44;5073854;28;20045;-84
2022/12/01 08:53:29;;;;;;;59.45;30.70;;;;;;;7.60;69.83;100965.91;5055857;28;20106;-84
2022/12/01 08:56:01;;;;;;;62.35;32.38;;;;;;;7.59;69.96;100966.78;5073665;28;20075;-83
2022/12/01 08:58:28;;;;;;;65.93;32.78;;;;;;;7.61;70.16;100967.63;5073550;28;20056;-82
2022/12/01 09:01:02;;;;;;;67.15;32.92;;;;;;;7.59;69.93;100963.31;5073327;28;20052;-84
2022/12/01 09:03:29;;;;;;;63.92;32.67;;;;;;;7.63;69.70;100972.84;5073454;28;20485;-81
2022/12/01 09:06:04;;;;;;;58.55;31.95;;;;;;;7.61;69.69;100974.63;5072840;28;20052;-80
2022/12/01 09:08:32;;;;;;;63.67;32.00;;;;;;;7.63;69.92;100968.44;5073060;28;20106;-81
2022/12/01 09:11:01;;;;;;;65.47;34.55;;;;;;;7.64;69.79;100977.16;5072662;28;20568;-82
2022/12/01 09:13:28;;;;;;;69.50;35.40;;;;;;;7.66;69.76;100975.34;5072633;28;20048;-81
2022/12/01 09:15:57;;;;;;;62.42;33.13;;;;;;;7.65;69.87;100977.13;5072882;28;20117;-81
2022/12/01 09:18:24;;;;;;;56.97;32.50;;;;;;;7.68;69.79;100971.81;5072040;28;20044;-82
2022/12/01 09:20:51;;;;;;;60.65;33.47;;;;;;;7.70;69.87;100984.84;5072632;28;20091;-81
2022/12/01 09:23:18;;;;;;;61.33;32.20;;;;;;;7.71;69.54;100983.13;5072561;28;20110;-81
2022/12/01 09:25:44;;;;;;;58.88;33.30;;;;;;;7.71;69.70;100983.97;5072786;28;20095;-81
2022/12/01 09:28:11;;;;;;;61.70;33.05;;;;;;;7.72;69.65;100979.59;5072788;28;20447;-79
2022/12/01 09:30:37;;;;;;;58.08;32.50;;;;;;;7.72;69.88;100983.06;5073062;28;20048;-80
2022/12/01 09:33:04;;;;;;;68.97;34.50;;;;;;;7.74;69.70;100988.28;5072999;28;20110;-80
2022/12/01 09:35:31;;;;;;;62.58;33.42;;;;;;;7.75;69.76;100985.63;5054218;28;20110;-81
2022/12/01 09:37:57;;;;;;;65.32;35.80;;;;;;;7.77;69.47;100982.94;5064577;28;20084;-80
2022/12/01 09:40:30;;;;;;;64.70;35.63;;;;;;;7.76;69.48;100991.72;5072847;28;20114;-80
2022/12/01 09:43:01;;;;;;;63.90;35.17;;;;;;;7.77;69.62;100982.94;5056880;28;20060;-81
2022/12/01 09:45:32;;;;;;;62.72;35.13;;;;;;;7.80;69.59;100988.13;5048985;28;20056;-79
2022/12/01 09:48:01;;;;;;;65.32;35.58;;;;;;;7.81;69.42;100987.22;5049166;28;20053;-80
2022/12/01 09:50:29;;;;;;;63.58;34.60;;;;;;;7.81;69.29;100990.72;5064322;28;20053;-81
2022/12/01 09:53:01;;;;;;;65.15;35.80;;;;;;;7.80;69.19;100993.34;5053705;28;20865;-80
2022/12/01 09:55:30;;;;;;;66.00;33.33;;;;;;;7.81;69.50;100993.31;5034498;28;20115;-80
2022/12/01 09:57:58;;;;;;;62.50;33.83;;;;;;;7.83;69.70;100993.28;5052450;28;20184;-80
2022/12/01 10:00:29;;;;;;;62.78;33.88;;;;;;;7.85;69.45;100988.00;5052469;28;20103;-81
2022/12/01 10:03:08;;;;;;;63.30;33.88;;;;;;;7.85;69.49;100985.38;5052570;28;20057;-82
2022/12/01 10:06:05;;;;;;;63.80;34.35;;;;;;;7.87;69.55;100984.44;5052246;28;20437;-79
2022/12/01 10:09:17;;;;;;;61.05;34.13;;;;;;;7.89;69.08;100981.78;5055238;28;20060;-81
2022/12/01 10:11:45;;;;;;;67.00;35.92;;;;;;;7.91;69.13;100978.22;5072491;28;20048;-80
2022/12/01 10:14:16;;;;;;;63.83;35.05;;;;;;;7.89;69.20;100971.31;5071116;28;20149;-78
2022/12/01 10:17:02;;;;;;;67.88;35.78;;;;;;;7.87;68.93;100975.72;5034886;28;20106;-80
2022/12/01 10:19:37;;;;;;;;;;;;;;;7.88;69.12;100975.69;5049958;28;20048;-81
2022/12/01 10:22:22;;;;;;;59.35;32.20;;;;;;;7.86;68.71;100972.25;5044764;28;19925;-80
2022/12/01 10:25:09;;;;;;;62.88;34.40;;;;;;;7.84;68.81;100968.78;5051768;28;20053;-81
2022/12/01 10:28:04;;;;;;;67.47;36.08;;;;;;;7.80;68.70;100965.41;5031847;28;20069;-81
2022/12/01 10:30:38;;;;;;;66.50;35.47;;;;;;;7.81;69.02;100964.50;5031597;28;20061;-81
2022/12/01 10:33:18;;;;;;;68.70;36.83;;;;;;;7.79;68.79;100968.06;5031930;28;20391;-80
2022/12/01 10:35:45;;;;;;;73.97;38.13;;;;;;;7.82;69.08;100963.59;5014124;28;20104;-80
2022/12/01 10:38:21;;;;;;;74.30;39.08;;;;;;;7.82;68.82;100966.19;5049549;28;20045;-80
2022/12/01 10:40:49;;;;;;;68.00;37.85;;;;;;;7.84;69.15;100960.09;5071338;28;20064;-80
2022/12/01 10:43:16;;;;;;;61.05;35.45;;;;;;;7.84;68.84;100962.72;5053430;28;20048;-81
2022/12/01 10:45:43;;;;;;;69.82;36.60;;;;;;;7.85;69.02;100961.81;5071160;28;20075;-80
2022/12/01 10:48:21;;;;;;;59.42;35.10;;;;;;;7.83;69.21;100953.97;5070416;28;20468;-80
2022/12/01 10:50:52;;;;;;;70.35;37.85;;;;;;;7.86;68.72;100959.16;5071255;28;20075;-78
2022/12/01 10:53:25;;;;;;;66.47;36.20;;;;;;;7.85;68.42;100965.25;5053447;28;20064;-82
2022/12/01 10:56:03;;;;;;;68.00;35.63;;;;;;;7.85;68.40;100965.25;5071349;28;20060;-81
2022/12/01 10:58:33;;;;;;;73.13;38.22;;;;;;;7.88;68.72;100957.31;5071296;28;20061;-80
2022/12/01 11:01:04;;;;;;;71.28;36.35;;;;;;;7.87;68.29;100963.47;5070971;28;20049;-81
2022/12/01 11:03:34;;;;;;;73.00;37.17;;;;;;;7.88;68.68;100959.94;5053479;28;20429;-82
2022/12/01 11:06:03;;;;;;;71.50;38.10;;;;;;;7.88;68.56;100959.94;5070996;28;20063;-81
2022/12/01 11:08:39;;;;;;;71.88;38.25;;;;;;;7.85;68.65;100962.63;5071218;28;20725;-82
2022/12/01 11:11:21;;;;;;;76.55;39.17;;;;;;;7.84;68.70;100960.09;5071083;28;20053;-81
2022/12/01 11:13:48;;;;;;;73.95;37.13;;;;;;;7.87;69.10;100958.22;5053352;28;20053;-81
2022/12/01 11:16:35;;;;;;;75.18;38.97;;;;;;;7.83;68.90;100959.22;5053118;28;20525;-80
2022/12/01 11:19:33;;;;;;;78.20;38.67;;;;;;;7.84;68.83;100960.94;5063479;28;20508;-80
2022/12/01 11:22:24;;;;;;;73.05;37.65;;;;;;;7.85;68.67;100962.63;5053074;28;20064;-80
2022/12/01 11:24:54;;;;;;;71.22;37.03;;;;;;;7.89;68.46;100959.03;5052798;28;20056;-79
2022/12/01 11:27:26;;;;;;;76.15;39.08;;;;;;;7.90;68.53;100959.91;5070727;28;20118;-80
2022/12/01 11:30:01;;;;;;;71.90;38.92;;;;;;;7.89;68.69;100951.16;5052915;28;20500;-82
2022/12/01 11:32:31;;;;;;;77.00;39.40;;;;;;;7.91;68.53;100953.75;5052889;28;20052;-81
2022/12/01 11:34:59;;;;;;;76.43;38.13;;;;;;;7.89;68.77;100951.16;5070508;28;20079;-79
2022/12/01 11:37:36;;;;;;;77.82;38.58;;;;;;;7.88;68.58;100956.44;5070401;28;20573;-80
2022/12/01 11:40:19;;;;;;;74.97;37.10;;;;;;;7.85;68.53;100952.16;5052863;28;20052;-80
2022/12/01 11:42:51;;;;;;;74.60;38.92;;;;;;;7.88;68.42;100949.47;5070554;28;20057;-79
2022/12/01 11:45:17;;;;;;;77.03;39.55;;;;;;;7.88;68.50;100954.69;5076567;22;20057;-79
2022/12/01 11:48:02;;;;;;;79.18;39.70;;;;;;;7.85;68.69;100956.56;5029592;28;20361;-79
2022/12/01 11:50:31;;;;;;;81.70;40.95;;;;;;;7.89;68.75;100955.56;5030394;28;20073;-79
2022/12/01 11:52:57;;;;;;;69.82;37.90;;;;;;;7.89;68.74;100947.72;5022312;28;20084;-79
2022/12/01 11:55:26;;;;;;;75.65;38.90;;;;;;;7.90;68.68;100941.56;5030368;28;20079;-79
2022/12/01 11:58:00;;;;;;;71.90;38.85;;;;;;;7.89;68.51;100945.09;5030162;28;20064;-79
2022/12/01 12:00:39;;;;;;;71.18;37.72;;;;;;;7.92;68.68;100944.97;5029998;28;20057;-79
2022/12/01 12:03:39;;;;;;;71.65;37.28;;;;;;;7.89;68.11;100948.56;5030534;28;20089;-79
2022/12/01 12:06:31;;;;;;;71.53;36.42;;;;;;;7.91;68.30;100949.38;5029884;28;20057;-79
2022/12/01 12:09:34;;;;;;;74.65;37.78;;;;;;;7.89;68.56;100945.94;5013995;28;20085;-79
2022/12/01 12:12:23;;;;;;;73.05;37.38;;;;;;;7.89;68.43;100937.22;5029914;28;20147;-79